createdAt,value
2023-06-28T00:01:38.117Z,3.00
2023-06-28T00:04:06.184Z,2.67
2023-06-28T00:06:33.895Z,3.43
2023-06-28T00:09:01.480Z,3.07
2023-06-28T00:11:29.696Z,2.47
2023-06-28T00:13:57.564Z,3.00
2023-06-28T00:16:26.601Z,2.90
2023-06-28T00:18:54.225Z,2.47
2023-06-28T00:21:24.078Z,3.23
2023-06-28T00:23:51.731Z,2.67
2023-06-28T00:26:20.485Z,2.90
2023-06-28T00:28:48.074Z,2.50
2023-06-28T00:31:15.849Z,2.07
2023-06-28T00:33:44.962Z,3.27
2023-06-28T00:36:12.576Z,3.30
2023-06-28T00:38:40.637Z,2.83
2023-06-28T00:41:08.270Z,2.70
2023-06-28T00:43:35.891Z,2.40
2023-06-28T00:46:03.556Z,2.67
2023-06-28T00:48:31.532Z,2.80
2023-06-28T00:51:00.761Z,2.60
2023-06-28T00:53:28.460Z,2.80
2023-06-28T00:55:57.333Z,2.83
2023-06-28T00:58:26.017Z,2.57
2023-06-28T01:00:53.880Z,3.00
2023-06-28T01:03:21.734Z,2.97
2023-06-28T01:05:51.082Z,2.90
2023-06-28T01:08:20.794Z,3.10
2023-06-28T01:10:48.599Z,2.20
2023-06-28T01:13:16.962Z,2.63
2023-06-28T01:15:44.748Z,2.50
2023-06-28T01:18:13.093Z,3.00
2023-06-28T01:20:40.915Z,3.10
2023-06-28T01:23:10.140Z,2.90
2023-06-28T01:25:37.991Z,3.03
2023-06-28T01:28:06.002Z,3.10
2023-06-28T01:30:38.425Z,3.43
2023-06-28T01:33:06.386Z,3.13
2023-06-28T01:35:34.143Z,2.97
2023-06-28T01:38:02.520Z,2.87
2023-06-28T01:40:36.919Z,3.10
2023-06-28T01:43:06.875Z,3.10
2023-06-28T01:45:34.658Z,4.10
2023-06-28T01:48:02.797Z,3.87
2023-06-28T01:50:31.033Z,3.03
2023-06-28T01:53:00.735Z,3.33
2023-06-28T01:55:28.922Z,3.77
2023-06-28T01:57:58.564Z,3.43
2023-06-28T02:00:26.437Z,3.10
2023-06-28T02:02:55.062Z,3.60
2023-06-28T02:05:23.204Z,3.20
2023-06-28T02:07:50.911Z,3.00
2023-06-28T02:10:19.730Z,3.40
2023-06-28T02:12:47.385Z,2.97
2023-06-28T02:15:16.979Z,4.30
2023-06-28T02:17:45.922Z,5.60
2023-06-28T02:20:13.934Z,3.40
2023-06-28T02:22:41.771Z,3.20
2023-06-28T02:25:10.051Z,4.13
2023-06-28T02:27:37.722Z,3.13
2023-06-28T02:30:06.160Z,3.93
2023-06-28T02:32:35.218Z,4.17
2023-06-28T02:35:02.830Z,3.40
2023-06-28T02:37:30.483Z,3.87
2023-06-28T02:39:58.645Z,4.40
2023-06-28T02:42:26.306Z,3.80
2023-06-28T02:44:53.996Z,3.47
2023-06-28T02:47:21.700Z,3.93
2023-06-28T02:49:50.839Z,3.90
2023-06-28T02:52:19.082Z,4.37
2023-06-28T02:54:46.778Z,4.00
2023-06-28T02:57:14.906Z,3.80
2023-06-28T02:59:51.715Z,4.13
2023-06-28T03:02:19.465Z,4.40
2023-06-28T03:04:47.591Z,4.50
2023-06-28T03:07:17.431Z,5.13
2023-06-28T03:09:45.715Z,5.43
2023-06-28T03:12:13.628Z,5.13
2023-06-28T03:14:41.271Z,4.47
2023-06-28T03:17:09.154Z,4.10
2023-06-28T03:19:38.034Z,4.47
2023-06-28T03:22:06.629Z,5.73
2023-06-28T03:24:35.709Z,5.27
2023-06-28T03:27:03.476Z,4.50
2023-06-28T03:29:31.515Z,4.50
2023-06-28T03:31:59.609Z,4.37
2023-06-28T03:34:27.795Z,5.83
2023-06-28T03:37:03.563Z,4.23
2023-06-28T03:39:32.664Z,4.73
2023-06-28T03:42:01.852Z,4.63
2023-06-28T03:44:30.062Z,4.03
2023-06-28T03:46:57.715Z,5.27
2023-06-28T03:49:25.430Z,4.60
2023-06-28T03:51:53.093Z,4.53
2023-06-28T03:54:22.051Z,4.50
2023-06-28T03:56:50.150Z,4.80
2023-06-28T03:59:19.199Z,5.60
2023-06-28T04:01:48.542Z,4.73
2023-06-28T04:04:16.736Z,4.70
2023-06-28T04:06:44.400Z,5.30
2023-06-28T04:09:12.329Z,4.47
2023-06-28T04:11:39.933Z,4.63
2023-06-28T04:14:07.577Z,5.07
2023-06-28T04:16:36.584Z,4.77
2023-06-28T04:19:04.297Z,4.97
2023-06-28T04:21:32.037Z,4.60
2023-06-28T04:24:01.164Z,5.03
2023-06-28T04:26:29.093Z,4.67
2023-06-28T04:28:56.704Z,4.47
2023-06-28T04:31:25.151Z,4.60
2023-06-28T04:33:56.651Z,4.40
2023-06-28T04:36:26.726Z,4.67
2023-06-28T04:38:56.187Z,4.47
2023-06-28T04:41:24.662Z,5.03
2023-06-28T04:43:55.628Z,4.77
2023-06-28T04:46:24.047Z,4.50
2023-06-28T04:48:52.270Z,3.83
2023-06-28T04:51:22.499Z,4.20
2023-06-28T04:53:50.425Z,3.67
2023-06-28T04:56:18.739Z,3.60
2023-06-28T04:58:46.320Z,3.53
2023-06-28T05:01:14.097Z,3.60
2023-06-28T05:03:41.876Z,3.70
2023-06-28T05:06:11.443Z,3.13
2023-06-28T05:08:40.430Z,4.03
2023-06-28T05:11:08.828Z,4.57
2023-06-28T05:13:36.547Z,4.07
2023-06-28T05:16:04.317Z,3.20
2023-06-28T05:18:31.931Z,4.47
2023-06-28T05:20:59.641Z,4.20
2023-06-28T05:23:27.759Z,3.20
2023-06-28T05:25:56.960Z,3.50
2023-06-28T05:28:26.282Z,3.80
2023-06-28T05:30:53.910Z,3.07
2023-06-28T05:33:21.656Z,3.40
2023-06-28T05:35:49.932Z,3.13
2023-06-28T05:38:17.662Z,2.83
2023-06-28T05:40:45.545Z,2.97
2023-06-28T05:43:14.669Z,3.10
2023-06-28T05:45:43.276Z,2.70
2023-06-28T05:48:11.401Z,2.47
2023-06-28T05:50:41.390Z,2.50
2023-06-28T05:53:11.993Z,3.30
2023-06-28T05:55:39.878Z,2.40
2023-06-28T05:58:07.691Z,2.67
2023-06-28T06:00:36.731Z,2.97
2023-06-28T06:03:04.857Z,2.20
2023-06-28T06:05:32.527Z,2.50
2023-06-28T06:08:00.149Z,2.20
2023-06-28T06:10:27.873Z,2.27
2023-06-28T06:12:55.897Z,2.97
2023-06-28T06:15:23.951Z,2.30
2023-06-28T06:17:53.190Z,2.40
2023-06-28T06:20:20.914Z,3.87
2023-06-28T06:22:48.652Z,2.60
2023-06-28T06:25:16.431Z,2.33
2023-06-28T06:27:44.150Z,2.47
2023-06-28T06:30:12.902Z,2.87
2023-06-28T06:32:40.624Z,2.70
2023-06-28T06:35:11.106Z,2.67
2023-06-28T06:37:38.996Z,1.97
2023-06-28T06:40:08.967Z,1.70
2023-06-28T06:42:37.316Z,1.73
2023-06-28T06:45:06.143Z,2.20
2023-06-28T06:47:34.047Z,2.20
2023-06-28T06:50:01.779Z,2.07
2023-06-28T06:52:30.782Z,2.63
2023-06-28T06:54:58.426Z,2.60
2023-06-28T06:57:26.162Z,2.23
2023-06-28T06:59:53.937Z,1.87
2023-06-28T07:02:22.992Z,2.23
2023-06-28T07:04:50.750Z,2.23
2023-06-28T07:07:18.528Z,1.80
2023-06-28T07:09:47.791Z,2.30
2023-06-28T07:12:15.585Z,2.20
2023-06-28T07:14:43.197Z,2.67
2023-06-28T07:17:11.151Z,2.30
2023-06-28T07:19:38.964Z,2.07
2023-06-28T07:22:06.684Z,2.17
2023-06-28T07:24:34.429Z,2.23
2023-06-28T07:27:03.597Z,2.77
2023-06-28T07:29:31.366Z,2.20
2023-06-28T07:31:59.121Z,2.13
2023-06-28T07:34:26.840Z,3.10
2023-06-28T07:36:54.444Z,2.60
2023-06-28T07:39:22.121Z,2.00
2023-06-28T07:41:50.114Z,1.93
2023-06-28T07:44:19.254Z,2.63
2023-06-28T07:46:47.051Z,2.10
2023-06-28T07:49:14.644Z,2.10
2023-06-28T07:51:42.478Z,1.70
2023-06-28T07:54:20.356Z,2.43
2023-06-28T07:56:56.739Z,2.30
2023-06-28T07:59:25.706Z,2.57
2023-06-28T08:01:53.794Z,1.87
2023-06-28T08:04:21.458Z,2.60
2023-06-28T08:06:49.606Z,2.23
2023-06-28T08:09:17.384Z,2.77
2023-06-28T08:11:45.055Z,2.30
2023-06-28T08:14:12.626Z,2.20
2023-06-28T08:16:41.552Z,2.50
2023-06-28T08:19:09.236Z,2.53
2023-06-28T08:21:38.387Z,2.37
2023-06-28T08:24:06.647Z,2.83
2023-06-28T08:26:37.140Z,2.23
2023-06-28T08:29:05.046Z,2.43
2023-06-28T08:31:32.745Z,2.03
2023-06-28T08:34:01.781Z,2.13
2023-06-28T08:36:30.616Z,2.10
2023-06-28T08:38:58.302Z,2.70
2023-06-28T08:41:28.521Z,2.07
2023-06-28T08:43:56.604Z,3.47
2023-06-28T08:46:24.549Z,1.83
2023-06-28T08:48:52.449Z,2.37
2023-06-28T08:51:21.980Z,2.47
2023-06-28T08:53:50.947Z,2.50
2023-06-28T08:56:18.627Z,2.53
2023-06-28T08:58:49.601Z,2.83
2023-06-28T09:01:17.450Z,2.77
2023-06-28T09:03:45.342Z,2.47
2023-06-28T09:06:13.397Z,2.50
2023-06-28T09:08:44.075Z,2.43
2023-06-28T09:11:12.987Z,2.83
2023-06-28T09:13:40.745Z,2.40
2023-06-28T09:16:10.986Z,2.40
2023-06-28T09:18:38.924Z,2.20
2023-06-28T09:21:06.985Z,1.90
2023-06-28T09:23:36.253Z,2.20
2023-06-28T09:26:05.283Z,2.60
2023-06-28T09:28:34.848Z,2.40
2023-06-28T09:31:06.083Z,2.33
2023-06-28T09:33:34.207Z,2.10
2023-06-28T09:36:03.287Z,2.57
2023-06-28T09:38:31.169Z,2.73
2023-06-28T09:40:59.566Z,3.20
2023-06-28T09:43:32.527Z,2.70
2023-06-28T09:46:11.897Z,2.80
2023-06-28T09:48:39.674Z,2.53
2023-06-28T09:51:07.462Z,2.63
2023-06-28T09:53:35.305Z,3.67
2023-06-28T09:56:03.232Z,2.20
2023-06-28T09:58:32.552Z,2.33
2023-06-28T10:01:01.602Z,2.87
2023-06-28T10:03:29.489Z,2.70
2023-06-28T10:05:58.251Z,3.10
2023-06-28T10:08:26.310Z,2.10
2023-06-28T10:10:56.761Z,2.23
2023-06-28T10:13:24.435Z,2.73
2023-06-28T10:15:56.920Z,2.70
2023-06-28T10:18:26.008Z,2.37
2023-06-28T10:20:53.690Z,2.40
2023-06-28T10:23:21.631Z,2.13
2023-06-28T10:25:49.384Z,2.23
2023-06-28T10:28:17.568Z,2.10
2023-06-28T10:30:46.125Z,2.17
2023-06-28T10:33:16.429Z,2.20
2023-06-28T10:35:45.693Z,2.47
2023-06-28T10:38:13.702Z,2.27
2023-06-28T10:40:41.641Z,2.53
2023-06-28T10:43:23.367Z,2.20
2023-06-28T10:45:52.551Z,2.10
2023-06-28T10:48:22.790Z,2.30
2023-06-28T10:50:52.062Z,2.00
2023-06-28T10:53:24.162Z,2.43
2023-06-28T10:56:11.686Z,2.30
2023-06-28T10:58:40.865Z,2.20
2023-06-28T11:01:09.545Z,2.73
2023-06-28T11:03:43.132Z,2.30
2023-06-28T11:06:12.221Z,1.80
2023-06-28T11:08:42.423Z,1.83
2023-06-28T11:11:11.518Z,2.07
2023-06-28T11:13:47.466Z,2.70
2023-06-28T11:16:19.376Z,2.37
2023-06-28T11:18:49.284Z,1.73
2023-06-28T11:21:17.694Z,1.80
2023-06-28T11:23:47.222Z,3.10
2023-06-28T11:26:17.507Z,2.70
2023-06-28T11:28:49.981Z,1.73
2023-06-28T11:31:22.597Z,1.60
2023-06-28T11:33:54.045Z,1.53
2023-06-28T11:36:24.758Z,1.70
2023-06-28T11:38:52.762Z,1.83
2023-06-28T11:41:20.742Z,2.20
2023-06-28T11:43:49.487Z,2.00
2023-06-28T11:46:18.917Z,2.30
2023-06-28T11:48:47.463Z,2.20
2023-06-28T11:51:17.532Z,2.53
2023-06-28T11:53:50.136Z,1.50
2023-06-28T11:56:17.975Z,1.80
2023-06-28T11:58:45.907Z,2.30
2023-06-28T12:01:23.455Z,1.43
2023-06-28T12:03:51.461Z,2.00
2023-06-28T12:06:20.645Z,1.77
2023-06-28T12:08:48.598Z,1.80
2023-06-28T12:11:18.064Z,1.30
2023-06-28T12:13:46.788Z,1.50
2023-06-28T12:16:15.696Z,1.43
2023-06-28T12:19:00.211Z,2.07
2023-06-28T12:21:30.317Z,1.93
2023-06-28T12:24:13.791Z,1.80
2023-06-28T12:26:41.974Z,1.63
2023-06-28T12:29:09.820Z,1.80
2023-06-28T12:31:47.136Z,1.27
2023-06-28T12:34:15.333Z,1.90
2023-06-28T12:36:44.310Z,1.80
2023-06-28T12:39:22.744Z,2.17
2023-06-28T12:42:02.038Z,1.60
2023-06-28T12:44:29.880Z,3.90
2023-06-28T12:46:57.754Z,2.77
2023-06-28T12:49:26.906Z,6.63
2023-06-28T12:51:55.899Z,12.03
2023-06-28T12:54:23.505Z,2.90
2023-06-28T12:56:51.183Z,5.50
2023-06-28T12:59:18.798Z,2.10
2023-06-28T13:01:46.476Z,1.97
2023-06-28T13:04:14.184Z,1.97
2023-06-28T13:06:41.850Z,1.80
2023-06-28T13:09:10.910Z,2.10
2023-06-28T13:11:38.570Z,3.17
2023-06-28T13:14:06.193Z,1.77
2023-06-28T13:16:33.883Z,2.40
2023-06-28T13:19:01.499Z,1.60
2023-06-28T13:21:29.436Z,2.43
2023-06-28T13:23:57.092Z,2.00
2023-06-28T13:26:26.051Z,2.40
2023-06-28T13:28:53.666Z,2.17
2023-06-28T13:31:21.503Z,2.27
2023-06-28T13:33:49.139Z,2.30
2023-06-28T13:36:20.363Z,1.97
2023-06-28T13:38:48.039Z,1.90
2023-06-28T13:41:15.718Z,2.10
2023-06-28T13:43:44.658Z,1.77
2023-06-28T13:46:12.538Z,1.80
2023-06-28T13:48:40.267Z,2.10
2023-06-28T13:51:08.087Z,2.23
2023-06-28T13:53:35.802Z,2.67
2023-06-28T13:56:03.834Z,1.97
2023-06-28T13:58:31.532Z,1.37
2023-06-28T14:01:01.159Z,1.90
2023-06-28T14:03:28.851Z,1.93
2023-06-28T14:05:56.644Z,1.80
2023-06-28T14:08:24.479Z,1.80
2023-06-28T14:10:53.118Z,1.90
2023-06-28T14:13:20.998Z,1.73
2023-06-28T14:15:48.765Z,2.50
2023-06-28T14:18:17.945Z,1.83
2023-06-28T14:20:45.593Z,1.57
2023-06-28T14:23:13.312Z,1.87
2023-06-28T14:25:41.207Z,1.83
2023-06-28T14:28:09.320Z,2.13
2023-06-28T14:30:37.050Z,2.00
2023-06-28T14:33:04.952Z,1.30
2023-06-28T14:35:34.205Z,2.00
2023-06-28T14:38:04.622Z,1.60
2023-06-28T14:40:33.588Z,1.90
2023-06-28T14:43:01.277Z,1.73
2023-06-28T14:45:28.935Z,2.17
2023-06-28T14:47:57.238Z,1.77
2023-06-28T14:50:25.180Z,1.50
2023-06-28T14:52:54.182Z,1.60
2023-06-28T14:55:21.876Z,1.63
2023-06-28T14:57:49.695Z,1.80
2023-06-28T15:00:17.979Z,1.80
2023-06-28T15:02:45.625Z,2.17
2023-06-28T15:05:13.556Z,1.53
2023-06-28T15:07:41.212Z,1.83
2023-06-28T15:10:11.422Z,1.87
2023-06-28T15:12:39.109Z,1.50
2023-06-28T15:15:07.878Z,1.63
2023-06-28T15:17:36.634Z,1.20
2023-06-28T15:20:04.823Z,2.10
2023-06-28T15:22:33.005Z,1.97
2023-06-28T15:25:00.686Z,2.27
2023-06-28T15:27:29.821Z,1.90
2023-06-28T15:29:57.618Z,2.20
2023-06-28T15:32:25.285Z,2.20
2023-06-28T15:34:52.976Z,1.90
2023-06-28T15:37:20.590Z,1.80
2023-06-28T15:39:48.148Z,1.87
2023-06-28T15:42:15.821Z,1.77
2023-06-28T15:44:44.904Z,1.70
2023-06-28T15:47:12.604Z,1.90
2023-06-28T15:49:40.287Z,2.27
2023-06-28T15:52:08.724Z,2.17
2023-06-28T15:54:38.960Z,2.13
2023-06-28T15:57:07.315Z,1.83
2023-06-28T15:59:34.927Z,1.67
2023-06-28T16:02:03.904Z,1.87
2023-06-28T16:04:31.660Z,2.10
2023-06-28T16:06:59.463Z,2.10
2023-06-28T16:09:27.206Z,1.50
2023-06-28T16:11:55.130Z,2.17
2023-06-28T16:14:22.926Z,2.67
2023-06-28T16:16:50.586Z,2.13
2023-06-28T16:19:19.638Z,2.43
2023-06-28T16:21:47.225Z,2.27
2023-06-28T16:24:14.923Z,2.10
2023-06-28T16:26:42.552Z,2.10
2023-06-28T16:29:10.259Z,1.70
2023-06-28T16:31:38.051Z,2.20
2023-06-28T16:34:05.738Z,2.27
2023-06-28T16:36:34.740Z,2.43
2023-06-28T16:39:02.432Z,2.27
2023-06-28T16:41:30.090Z,1.87
2023-06-28T16:43:57.848Z,2.30
2023-06-28T16:46:26.136Z,1.93
2023-06-28T16:48:53.764Z,2.33
2023-06-28T16:51:21.501Z,2.30
2023-06-28T16:53:50.615Z,2.50
2023-06-28T16:56:18.468Z,2.37
2023-06-28T16:58:46.148Z,2.40
2023-06-28T17:01:14.290Z,2.00
2023-06-28T17:03:42.250Z,1.90
2023-06-28T17:06:10.788Z,1.80
2023-06-28T17:08:38.478Z,2.20
2023-06-28T17:11:07.801Z,2.20
2023-06-28T17:13:36.707Z,2.20
2023-06-28T17:16:04.606Z,2.20
2023-06-28T17:18:32.253Z,2.30
2023-06-28T17:21:00.008Z,2.50
2023-06-28T17:23:27.717Z,2.47
2023-06-28T17:25:55.814Z,2.20
2023-06-28T17:28:25.626Z,2.07
2023-06-28T17:30:55.666Z,2.00
2023-06-28T17:33:25.464Z,2.30
2023-06-28T17:35:53.452Z,2.40
2023-06-28T17:38:21.480Z,2.93
2023-06-28T17:40:49.374Z,1.80
2023-06-28T17:43:17.131Z,2.37
2023-06-28T17:45:46.220Z,2.10
2023-06-28T17:48:15.182Z,2.47
2023-06-28T17:50:43.290Z,2.47
2023-06-28T17:53:11.244Z,2.17
2023-06-28T17:55:39.178Z,2.13
2023-06-28T17:58:07.005Z,1.73
2023-06-28T18:00:35.674Z,2.97
2023-06-28T18:03:05.656Z,4.00
2023-06-28T18:05:34.530Z,3.97
2023-06-28T18:08:03.740Z,2.50
2023-06-28T18:10:31.447Z,2.30
2023-06-28T18:12:59.601Z,2.23
2023-06-28T18:15:27.348Z,2.10
2023-06-28T18:17:55.200Z,2.53
2023-06-28T18:20:24.311Z,3.30
2023-06-28T18:22:52.173Z,2.27
2023-06-28T18:25:20.072Z,5.20
2023-06-28T18:27:47.816Z,3.17
2023-06-28T18:30:15.683Z,2.17
2023-06-28T18:32:43.522Z,3.57
2023-06-28T18:35:11.324Z,2.37
2023-06-28T18:37:40.393Z,2.30
2023-06-28T18:40:09.512Z,2.57
2023-06-28T18:42:37.202Z,2.67
2023-06-28T18:45:05.635Z,2.20
2023-06-28T18:47:33.487Z,2.73
2023-06-28T18:50:01.301Z,3.03
2023-06-28T18:52:28.995Z,2.50
2023-06-28T18:54:58.086Z,2.30
2023-06-28T18:57:26.553Z,2.73
2023-06-28T18:59:54.555Z,3.37
2023-06-28T19:02:22.527Z,2.83
2023-06-28T19:04:50.358Z,3.57
2023-06-28T19:07:18.278Z,3.20
2023-06-28T19:09:45.990Z,2.57
2023-06-28T19:12:15.191Z,2.47
2023-06-28T19:14:43.442Z,2.83
2023-06-28T19:17:11.517Z,1.80
2023-06-28T19:19:39.365Z,2.43
2023-06-28T19:22:09.170Z,2.57
2023-06-28T19:24:36.981Z,2.83
2023-06-28T19:27:05.398Z,2.73
2023-06-28T19:29:34.728Z,2.70
2023-06-28T19:32:03.281Z,2.77
2023-06-28T19:34:31.007Z,3.30
2023-06-28T19:36:59.062Z,3.50
2023-06-28T19:39:26.824Z,3.80
2023-06-28T19:41:54.626Z,3.37
2023-06-28T19:44:22.470Z,3.50
2023-06-28T19:46:51.595Z,2.93
2023-06-28T19:49:19.572Z,3.33
2023-06-28T19:51:47.350Z,3.13
2023-06-28T19:54:15.265Z,3.20
2023-06-28T19:56:43.008Z,4.03
2023-06-28T19:59:10.754Z,3.13
2023-06-28T20:01:40.483Z,3.23
2023-06-28T20:04:09.675Z,3.17
2023-06-28T20:06:42.021Z,4.07
2023-06-28T20:09:11.793Z,3.57
2023-06-28T20:11:40.579Z,4.83
2023-06-28T20:14:08.278Z,4.67
2023-06-28T20:16:36.441Z,4.33
2023-06-28T20:19:04.575Z,2.93
2023-06-28T20:21:33.643Z,3.90
2023-06-28T20:24:01.231Z,3.50
2023-06-28T20:26:28.977Z,3.90
2023-06-28T20:28:56.655Z,4.00
2023-06-28T20:31:25.699Z,3.90
2023-06-28T20:33:53.388Z,3.97
2023-06-28T20:36:21.242Z,3.50
2023-06-28T20:38:52.357Z,3.50
2023-06-28T20:41:25.573Z,4.07
2023-06-28T20:43:53.842Z,4.00
2023-06-28T20:46:21.521Z,3.67
2023-06-28T20:48:49.377Z,3.60
2023-06-28T20:51:17.315Z,4.03
2023-06-28T20:53:46.322Z,3.27
2023-06-28T20:56:15.512Z,3.83
2023-06-28T20:58:44.118Z,4.00
2023-06-28T21:01:11.817Z,4.37
2023-06-28T21:03:39.815Z,4.70
2023-06-28T21:06:07.600Z,3.70
2023-06-28T21:08:35.296Z,3.93
2023-06-28T21:11:03.073Z,4.10
2023-06-28T21:13:32.119Z,3.60
2023-06-28T21:15:59.789Z,3.90
2023-06-28T21:18:27.611Z,4.60
2023-06-28T21:20:55.365Z,4.03
2023-06-28T21:23:23.028Z,3.97
2023-06-28T21:25:50.675Z,4.47
2023-06-28T21:28:18.298Z,3.93
2023-06-28T21:30:47.386Z,4.40
2023-06-28T21:33:15.247Z,4.20
2023-06-28T21:35:43.024Z,4.20
2023-06-28T21:38:11.032Z,4.30
2023-06-28T21:40:38.664Z,4.90
2023-06-28T21:43:06.592Z,4.20
2023-06-28T21:45:34.346Z,4.67
2023-06-28T21:48:03.871Z,4.13
2023-06-28T21:50:31.649Z,3.80
2023-06-28T21:52:59.382Z,4.80
2023-06-28T21:55:27.371Z,4.23
2023-06-28T21:57:55.062Z,4.27
2023-06-28T22:00:25.156Z,4.50
2023-06-28T22:02:53.131Z,4.70
2023-06-28T22:05:22.655Z,4.80
2023-06-28T22:07:52.362Z,4.07
2023-06-28T22:10:20.754Z,4.20
2023-06-28T22:12:48.965Z,3.77
2023-06-28T22:15:17.041Z,3.37
2023-06-28T22:17:44.842Z,3.83
2023-06-28T22:20:13.228Z,4.00
2023-06-28T22:22:42.208Z,4.27
2023-06-28T22:25:10.491Z,4.37
2023-06-28T22:27:38.166Z,4.27
2023-06-28T22:30:06.891Z,3.70
2023-06-28T22:32:34.589Z,3.90
2023-06-28T22:35:02.264Z,3.80
2023-06-28T22:37:29.917Z,4.03
2023-06-28T22:39:58.934Z,3.83
2023-06-28T22:42:26.578Z,5.20
2023-06-28T22:44:54.204Z,3.83
2023-06-28T22:47:21.823Z,4.23
2023-06-28T22:49:49.784Z,4.33
2023-06-28T22:52:17.557Z,4.40
2023-06-28T22:54:45.192Z,4.33
2023-06-28T22:57:14.168Z,3.80
2023-06-28T22:59:41.872Z,4.70
2023-06-28T23:02:09.536Z,3.57
2023-06-28T23:04:38.209Z,4.03
2023-06-28T23:07:06.446Z,4.43
2023-06-28T23:09:34.028Z,3.87
2023-06-28T23:12:03.333Z,4.17
2023-06-28T23:14:32.310Z,5.00
2023-06-28T23:17:02.382Z,4.00
2023-06-28T23:19:30.065Z,4.70
2023-06-28T23:22:02.032Z,4.00
2023-06-28T23:24:31.044Z,4.03
2023-06-28T23:26:58.932Z,4.00
2023-06-28T23:29:30.717Z,4.33
2023-06-28T23:32:00.002Z,5.00
2023-06-28T23:34:28.223Z,4.60
2023-06-28T23:36:55.943Z,4.47
2023-06-28T23:39:23.659Z,4.67
2023-06-28T23:41:51.512Z,4.33
2023-06-28T23:44:19.466Z,4.40
2023-06-28T23:46:47.044Z,4.40
2023-06-28T23:49:16.138Z,4.80
2023-06-28T23:51:45.028Z,5.73
2023-06-28T23:54:12.770Z,5.80
2023-06-28T23:56:40.510Z,4.63
2023-06-28T23:59:08.304Z,5.07
